sensor_id;sensor_type;location;lat;lon;timestamp;P1;durP1;ratioP1;P2;durP2;ratioP2
72117;SDS011;59992;47.490;8.736;2023-05-07T00:01:32;2.60;;;2.10;;
72117;SDS011;59992;47.490;8.736;2023-05-07T00:04:23;4.20;;;2.20;;
72117;SDS011;59992;47.490;8.736;2023-05-07T00:07:13;4.80;;;2.20;;
72117;SDS011;59992;47.490;8.736;2023-05-07T00:10:03;3.40;;;2.00;;
72117;SDS011;59992;47.490;8.736;2023-05-07T00:12:55;4.90;;;2.30;;
72117;SDS011;59992;47.490;8.736;2023-05-07T00:15:45;4.90;;;2.00;;
72117;SDS011;59992;47.490;8.736;2023-05-07T00:18:35;5.50;;;2.10;;
72117;SDS011;59992;47.490;8.736;2023-05-07T00:21:25;3.20;;;2.10;;
72117;SDS011;59992;47.490;8.736;2023-05-07T00:24:15;3.50;;;2.00;;
72117;SDS011;59992;47.490;8.736;2023-05-07T00:27:05;3.10;;;1.90;;
72117;SDS011;59992;47.490;8.736;2023-05-07T00:29:55;3.00;;;2.00;;
72117;SDS011;59992;47.490;8.736;2023-05-07T00:32:44;4.10;;;2.20;;
72117;SDS011;59992;47.490;8.736;2023-05-07T00:35:36;4.70;;;2.20;;
72117;SDS011;59992;47.490;8.736;2023-05-07T00:38:26;5.50;;;2.10;;
72117;SDS011;59992;47.490;8.736;2023-05-07T00:41:16;3.70;;;2.20;;
72117;SDS011;59992;47.490;8.736;2023-05-07T00:44:07;4.10;;;2.50;;
72117;SDS011;59992;47.490;8.736;2023-05-07T00:46:57;3.00;;;1.80;;
72117;SDS011;59992;47.490;8.736;2023-05-07T00:49:49;4.30;;;2.00;;
72117;SDS011;59992;47.490;8.736;2023-05-07T00:52:40;2.90;;;1.70;;
72117;SDS011;59992;47.490;8.736;2023-05-07T00:55:30;4.10;;;1.80;;
72117;SDS011;59992;47.490;8.736;2023-05-07T00:58:21;2.80;;;1.50;;
72117;SDS011;59992;47.490;8.736;2023-05-07T01:01:12;2.60;;;1.60;;
72117;SDS011;59992;47.490;8.736;2023-05-07T01:04:03;3.10;;;1.60;;
72117;SDS011;59992;47.490;8.736;2023-05-07T01:06:53;3.80;;;1.50;;
72117;SDS011;59992;47.490;8.736;2023-05-07T01:09:46;3.50;;;1.70;;
72117;SDS011;59992;47.490;8.736;2023-05-07T01:12:36;3.50;;;1.50;;
72117;SDS011;59992;47.490;8.736;2023-05-07T01:15:28;3.40;;;2.10;;
72117;SDS011;59992;47.490;8.736;2023-05-07T01:18:19;4.50;;;1.50;;
72117;SDS011;59992;47.490;8.736;2023-05-07T01:21:10;3.70;;;2.30;;
72117;SDS011;59992;47.490;8.736;2023-05-07T01:24:03;3.60;;;2.30;;
72117;SDS011;59992;47.490;8.736;2023-05-07T01:26:54;3.10;;;1.70;;
72117;SDS011;59992;47.490;8.736;2023-05-07T01:29:44;3.30;;;1.80;;
72117;SDS011;59992;47.490;8.736;2023-05-07T01:32:35;2.80;;;1.60;;
72117;SDS011;59992;47.490;8.736;2023-05-07T01:35:29;2.80;;;1.80;;
72117;SDS011;59992;47.490;8.736;2023-05-07T01:38:23;2.70;;;1.40;;
72117;SDS011;59992;47.490;8.736;2023-05-07T01:41:15;3.40;;;1.90;;
72117;SDS011;59992;47.490;8.736;2023-05-07T01:44:06;3.30;;;1.80;;
72117;SDS011;59992;47.490;8.736;2023-05-07T01:46:57;4.60;;;2.30;;
72117;SDS011;59992;47.490;8.736;2023-05-07T01:49:49;3.40;;;1.60;;
72117;SDS011;59992;47.490;8.736;2023-05-07T01:52:40;3.60;;;1.60;;
72117;SDS011;59992;47.490;8.736;2023-05-07T01:55:30;3.30;;;1.70;;
72117;SDS011;59992;47.490;8.736;2023-05-07T01:58:21;5.30;;;2.20;;
72117;SDS011;59992;47.490;8.736;2023-05-07T02:01:12;2.70;;;2.00;;
72117;SDS011;59992;47.490;8.736;2023-05-07T02:04:03;2.90;;;1.80;;
72117;SDS011;59992;47.490;8.736;2023-05-07T02:06:53;3.70;;;1.70;;
72117;SDS011;59992;47.490;8.736;2023-05-07T02:09:43;3.10;;;2.10;;
72117;SDS011;59992;47.490;8.736;2023-05-07T02:12:33;4.40;;;1.80;;
72117;SDS011;59992;47.490;8.736;2023-05-07T02:15:24;3.80;;;1.70;;
72117;SDS011;59992;47.490;8.736;2023-05-07T02:18:14;3.50;;;1.90;;
72117;SDS011;59992;47.490;8.736;2023-05-07T02:21:04;3.90;;;2.20;;
72117;SDS011;59992;47.490;8.736;2023-05-07T02:23:54;4.20;;;2.20;;
72117;SDS011;59992;47.490;8.736;2023-05-07T02:26:45;4.60;;;1.80;;
72117;SDS011;59992;47.490;8.736;2023-05-07T02:29:35;5.00;;;1.90;;
72117;SDS011;59992;47.490;8.736;2023-05-07T02:32:25;2.50;;;1.80;;
72117;SDS011;59992;47.490;8.736;2023-05-07T02:35:16;2.30;;;1.50;;
72117;SDS011;59992;47.490;8.736;2023-05-07T02:38:06;3.00;;;1.80;;
72117;SDS011;59992;47.490;8.736;2023-05-07T02:40:57;2.90;;;1.80;;
72117;SDS011;59992;47.490;8.736;2023-05-07T02:43:48;4.50;;;2.00;;
72117;SDS011;59992;47.490;8.736;2023-05-07T02:46:38;4.90;;;1.90;;
72117;SDS011;59992;47.490;8.736;2023-05-07T02:49:28;2.90;;;1.70;;
72117;SDS011;59992;47.490;8.736;2023-05-07T02:52:18;4.40;;;1.80;;
72117;SDS011;59992;47.490;8.736;2023-05-07T02:55:09;2.50;;;1.90;;
72117;SDS011;59992;47.490;8.736;2023-05-07T02:57:59;3.60;;;2.10;;
72117;SDS011;59992;47.490;8.736;2023-05-07T03:00:50;3.50;;;1.80;;
72117;SDS011;59992;47.490;8.736;2023-05-07T03:03:41;3.50;;;2.10;;
72117;SDS011;59992;47.490;8.736;2023-05-07T03:06:32;3.20;;;2.20;;
72117;SDS011;59992;47.490;8.736;2023-05-07T03:09:22;3.90;;;2.00;;
72117;SDS011;59992;47.490;8.736;2023-05-07T03:12:12;5.00;;;2.20;;
72117;SDS011;59992;47.490;8.736;2023-05-07T03:15:03;4.60;;;2.50;;
72117;SDS011;59992;47.490;8.736;2023-05-07T03:17:55;5.50;;;2.00;;
72117;SDS011;59992;47.490;8.736;2023-05-07T03:20:45;2.60;;;1.80;;
72117;SDS011;59992;47.490;8.736;2023-05-07T03:23:36;3.60;;;2.10;;
72117;SDS011;59992;47.490;8.736;2023-05-07T03:26:27;3.60;;;1.70;;
72117;SDS011;59992;47.490;8.736;2023-05-07T03:29:17;3.20;;;2.00;;
72117;SDS011;59992;47.490;8.736;2023-05-07T03:32:07;3.30;;;1.40;;
72117;SDS011;59992;47.490;8.736;2023-05-07T03:34:57;2.50;;;1.60;;
72117;SDS011;59992;47.490;8.736;2023-05-07T03:37:47;3.20;;;2.10;;
72117;SDS011;59992;47.490;8.736;2023-05-07T03:40:37;7.10;;;2.00;;
72117;SDS011;59992;47.490;8.736;2023-05-07T03:43:27;2.80;;;1.70;;
72117;SDS011;59992;47.490;8.736;2023-05-07T03:46:18;3.80;;;2.10;;
72117;SDS011;59992;47.490;8.736;2023-05-07T03:49:08;5.30;;;2.00;;
72117;SDS011;59992;47.490;8.736;2023-05-07T03:51:59;3.20;;;1.90;;
72117;SDS011;59992;47.490;8.736;2023-05-07T03:54:49;3.10;;;1.70;;
72117;SDS011;59992;47.490;8.736;2023-05-07T03:57:40;2.60;;;1.80;;
72117;SDS011;59992;47.490;8.736;2023-05-07T04:00:30;2.50;;;1.60;;
72117;SDS011;59992;47.490;8.736;2023-05-07T04:03:21;4.40;;;2.30;;
72117;SDS011;59992;47.490;8.736;2023-05-07T04:06:11;3.00;;;1.80;;
72117;SDS011;59992;47.490;8.736;2023-05-07T04:09:02;2.50;;;1.60;;
72117;SDS011;59992;47.490;8.736;2023-05-07T04:11:52;3.50;;;2.10;;
72117;SDS011;59992;47.490;8.736;2023-05-07T04:14:43;4.30;;;2.30;;
72117;SDS011;59992;47.490;8.736;2023-05-07T04:17:33;3.00;;;2.00;;
72117;SDS011;59992;47.490;8.736;2023-05-07T04:20:23;4.60;;;2.40;;
72117;SDS011;59992;47.490;8.736;2023-05-07T04:23:13;3.80;;;2.50;;
72117;SDS011;59992;47.490;8.736;2023-05-07T04:26:03;3.30;;;2.60;;
72117;SDS011;59992;47.490;8.736;2023-05-07T04:28:54;5.50;;;2.20;;
72117;SDS011;59992;47.490;8.736;2023-05-07T04:31:44;5.30;;;2.50;;
72117;SDS011;59992;47.490;8.736;2023-05-07T04:34:34;3.40;;;2.30;;
72117;SDS011;59992;47.490;8.736;2023-05-07T04:37:25;6.60;;;2.10;;
72117;SDS011;59992;47.490;8.736;2023-05-07T04:40:15;3.50;;;2.40;;
72117;SDS011;59992;47.490;8.736;2023-05-07T04:43:05;3.80;;;2.20;;
72117;SDS011;59992;47.490;8.736;2023-05-07T04:45:56;2.80;;;2.00;;
72117;SDS011;59992;47.490;8.736;2023-05-07T04:48:47;5.70;;;2.10;;
72117;SDS011;59992;47.490;8.736;2023-05-07T04:51:37;3.80;;;2.60;;
72117;SDS011;59992;47.490;8.736;2023-05-07T04:54:30;5.70;;;2.10;;
72117;SDS011;59992;47.490;8.736;2023-05-07T04:57:20;4.90;;;1.80;;
72117;SDS011;59992;47.490;8.736;2023-05-07T05:00:11;2.90;;;1.60;;
72117;SDS011;59992;47.490;8.736;2023-05-07T05:03:02;2.80;;;1.50;;
72117;SDS011;59992;47.490;8.736;2023-05-07T05:05:53;3.50;;;1.90;;
72117;SDS011;59992;47.490;8.736;2023-05-07T05:08:44;2.50;;;1.80;;
72117;SDS011;59992;47.490;8.736;2023-05-07T05:11:34;2.90;;;1.80;;
72117;SDS011;59992;47.490;8.736;2023-05-07T05:14:24;4.30;;;1.50;;
72117;SDS011;59992;47.490;8.736;2023-05-07T05:17:14;4.90;;;1.60;;
72117;SDS011;59992;47.490;8.736;2023-05-07T05:20:05;2.60;;;1.40;;
72117;SDS011;59992;47.490;8.736;2023-05-07T05:22:57;2.90;;;1.80;;
72117;SDS011;59992;47.490;8.736;2023-05-07T05:25:47;3.30;;;1.80;;
72117;SDS011;59992;47.490;8.736;2023-05-07T05:28:37;3.50;;;1.50;;
72117;SDS011;59992;47.490;8.736;2023-05-07T05:31:34;5.10;;;1.70;;
72117;SDS011;59992;47.490;8.736;2023-05-07T05:34:26;2.30;;;1.60;;
72117;SDS011;59992;47.490;8.736;2023-05-07T05:37:16;2.30;;;1.60;;
72117;SDS011;59992;47.490;8.736;2023-05-07T05:40:07;2.90;;;1.50;;
72117;SDS011;59992;47.490;8.736;2023-05-07T05:42:59;3.90;;;1.40;;
72117;SDS011;59992;47.490;8.736;2023-05-07T05:45:49;2.60;;;1.40;;
72117;SDS011;59992;47.490;8.736;2023-05-07T05:48:39;3.20;;;1.50;;
72117;SDS011;59992;47.490;8.736;2023-05-07T05:51:29;4.00;;;1.50;;
72117;SDS011;59992;47.490;8.736;2023-05-07T05:54:20;3.10;;;1.60;;
72117;SDS011;59992;47.490;8.736;2023-05-07T05:57:09;3.20;;;1.80;;
72117;SDS011;59992;47.490;8.736;2023-05-07T06:00:00;3.20;;;1.40;;
72117;SDS011;59992;47.490;8.736;2023-05-07T06:02:51;3.90;;;1.50;;
72117;SDS011;59992;47.490;8.736;2023-05-07T06:05:40;3.20;;;2.00;;
72117;SDS011;59992;47.490;8.736;2023-05-07T06:08:31;3.30;;;1.70;;
72117;SDS011;59992;47.490;8.736;2023-05-07T06:11:21;8.90;;;3.40;;
72117;SDS011;59992;47.490;8.736;2023-05-07T06:14:12;2.90;;;1.50;;
72117;SDS011;59992;47.490;8.736;2023-05-07T06:17:02;2.20;;;1.70;;
72117;SDS011;59992;47.490;8.736;2023-05-07T06:19:53;4.40;;;1.90;;
72117;SDS011;59992;47.490;8.736;2023-05-07T06:22:42;2.40;;;1.90;;
72117;SDS011;59992;47.490;8.736;2023-05-07T06:25:33;2.80;;;1.70;;
72117;SDS011;59992;47.490;8.736;2023-05-07T06:28:23;4.10;;;1.60;;
72117;SDS011;59992;47.490;8.736;2023-05-07T06:31:14;3.30;;;1.60;;
72117;SDS011;59992;47.490;8.736;2023-05-07T06:34:07;5.60;;;1.90;;
72117;SDS011;59992;47.490;8.736;2023-05-07T06:37:01;3.10;;;1.70;;
72117;SDS011;59992;47.490;8.736;2023-05-07T06:39:52;4.80;;;1.90;;
72117;SDS011;59992;47.490;8.736;2023-05-07T06:42:43;4.00;;;2.40;;
72117;SDS011;59992;47.490;8.736;2023-05-07T06:45:33;5.10;;;2.30;;
72117;SDS011;59992;47.490;8.736;2023-05-07T06:48:23;3.50;;;1.90;;
72117;SDS011;59992;47.490;8.736;2023-05-07T06:51:13;3.30;;;1.60;;
72117;SDS011;59992;47.490;8.736;2023-05-07T06:54:03;4.10;;;1.90;;
72117;SDS011;59992;47.490;8.736;2023-05-07T06:56:54;1.90;;;1.40;;
72117;SDS011;59992;47.490;8.736;2023-05-07T06:59:44;3.40;;;1.60;;
72117;SDS011;59992;47.490;8.736;2023-05-07T07:02:34;3.10;;;1.40;;
72117;SDS011;59992;47.490;8.736;2023-05-07T07:05:24;3.40;;;1.50;;
72117;SDS011;59992;47.490;8.736;2023-05-07T07:08:14;2.70;;;1.10;;
72117;SDS011;59992;47.490;8.736;2023-05-07T07:11:05;1.70;;;1.10;;
72117;SDS011;59992;47.490;8.736;2023-05-07T07:13:56;4.60;;;1.40;;
72117;SDS011;59992;47.490;8.736;2023-05-07T07:16:47;2.60;;;1.20;;
72117;SDS011;59992;47.490;8.736;2023-05-07T07:19:38;3.50;;;1.00;;
72117;SDS011;59992;47.490;8.736;2023-05-07T07:22:28;3.30;;;1.50;;
72117;SDS011;59992;47.490;8.736;2023-05-07T07:25:18;3.50;;;1.40;;
72117;SDS011;59992;47.490;8.736;2023-05-07T07:28:08;3.30;;;1.50;;
72117;SDS011;59992;47.490;8.736;2023-05-07T07:30:59;3.60;;;1.40;;
72117;SDS011;59992;47.490;8.736;2023-05-07T07:33:49;5.90;;;1.40;;
72117;SDS011;59992;47.490;8.736;2023-05-07T07:36:39;3.00;;;1.40;;
72117;SDS011;59992;47.490;8.736;2023-05-07T07:39:29;1.80;;;1.10;;
72117;SDS011;59992;47.490;8.736;2023-05-07T07:42:20;2.40;;;1.30;;
72117;SDS011;59992;47.490;8.736;2023-05-07T07:45:10;3.30;;;1.20;;
72117;SDS011;59992;47.490;8.736;2023-05-07T07:48:00;2.10;;;1.30;;
72117;SDS011;59992;47.490;8.736;2023-05-07T07:50:51;2.30;;;1.20;;
72117;SDS011;59992;47.490;8.736;2023-05-07T07:56:20;1.80;;;1.00;;
72117;SDS011;59992;47.490;8.736;2023-05-07T07:59:11;4.00;;;1.20;;
72117;SDS011;59992;47.490;8.736;2023-05-07T08:02:05;2.90;;;1.20;;
72117;SDS011;59992;47.490;8.736;2023-05-07T08:04:55;2.60;;;1.10;;
72117;SDS011;59992;47.490;8.736;2023-05-07T08:07:47;2.50;;;1.00;;
72117;SDS011;59992;47.490;8.736;2023-05-07T08:10:39;3.00;;;1.20;;
72117;SDS011;59992;47.490;8.736;2023-05-07T08:13:30;2.60;;;1.20;;
72117;SDS011;59992;47.490;8.736;2023-05-07T08:16:20;2.50;;;1.30;;
72117;SDS011;59992;47.490;8.736;2023-05-07T08:19:11;1.80;;;1.10;;
72117;SDS011;59992;47.490;8.736;2023-05-07T08:22:02;4.20;;;1.20;;
72117;SDS011;59992;47.490;8.736;2023-05-07T08:24:53;2.00;;;1.00;;
72117;SDS011;59992;47.490;8.736;2023-05-07T08:27:43;3.60;;;1.10;;
72117;SDS011;59992;47.490;8.736;2023-05-07T08:30:33;3.30;;;1.20;;
72117;SDS011;59992;47.490;8.736;2023-05-07T08:33:24;2.30;;;1.20;;
72117;SDS011;59992;47.490;8.736;2023-05-07T08:36:14;1.70;;;1.00;;
72117;SDS011;59992;47.490;8.736;2023-05-07T08:39:06;2.30;;;1.20;;
72117;SDS011;59992;47.490;8.736;2023-05-07T08:41:56;3.40;;;1.40;;
72117;SDS011;59992;47.490;8.736;2023-05-07T08:44:52;2.50;;;1.10;;
72117;SDS011;59992;47.490;8.736;2023-05-07T08:47:50;3.50;;;1.20;;
72117;SDS011;59992;47.490;8.736;2023-05-07T08:50:43;3.10;;;1.30;;
72117;SDS011;59992;47.490;8.736;2023-05-07T08:53:34;2.40;;;1.20;;
72117;SDS011;59992;47.490;8.736;2023-05-07T08:56:28;2.10;;;1.30;;
72117;SDS011;59992;47.490;8.736;2023-05-07T08:59:18;2.80;;;1.50;;
72117;SDS011;59992;47.490;8.736;2023-05-07T09:02:09;3.20;;;1.40;;
72117;SDS011;59992;47.490;8.736;2023-05-07T09:04:59;2.20;;;1.10;;
72117;SDS011;59992;47.490;8.736;2023-05-07T09:07:49;2.60;;;1.40;;
72117;SDS011;59992;47.490;8.736;2023-05-07T09:10:40;3.00;;;1.70;;
72117;SDS011;59992;47.490;8.736;2023-05-07T09:13:30;3.40;;;1.20;;
72117;SDS011;59992;47.490;8.736;2023-05-07T09:16:21;2.20;;;1.20;;
72117;SDS011;59992;47.490;8.736;2023-05-07T09:19:12;3.70;;;1.40;;
72117;SDS011;59992;47.490;8.736;2023-05-07T09:22:03;3.80;;;1.30;;
72117;SDS011;59992;47.490;8.736;2023-05-07T09:24:55;2.50;;;1.20;;
72117;SDS011;59992;47.490;8.736;2023-05-07T09:27:45;2.50;;;1.50;;
72117;SDS011;59992;47.490;8.736;2023-05-07T09:30:35;2.60;;;1.50;;
72117;SDS011;59992;47.490;8.736;2023-05-07T09:33:27;2.80;;;1.40;;
72117;SDS011;59992;47.490;8.736;2023-05-07T09:36:18;3.40;;;1.20;;
72117;SDS011;59992;47.490;8.736;2023-05-07T09:39:09;3.00;;;1.40;;
72117;SDS011;59992;47.490;8.736;2023-05-07T09:42:00;3.80;;;1.70;;
72117;SDS011;59992;47.490;8.736;2023-05-07T09:44:50;2.60;;;1.70;;
72117;SDS011;59992;47.490;8.736;2023-05-07T09:47:41;4.80;;;2.10;;
72117;SDS011;59992;47.490;8.736;2023-05-07T09:50:35;4.00;;;1.90;;
72117;SDS011;59992;47.490;8.736;2023-05-07T09:53:30;3.20;;;1.80;;
72117;SDS011;59992;47.490;8.736;2023-05-07T09:56:22;4.30;;;1.90;;
72117;SDS011;59992;47.490;8.736;2023-05-07T09:59:14;4.80;;;2.10;;
72117;SDS011;59992;47.490;8.736;2023-05-07T10:02:04;3.60;;;2.00;;
72117;SDS011;59992;47.490;8.736;2023-05-07T10:04:57;7.20;;;2.60;;
72117;SDS011;59992;47.490;8.736;2023-05-07T10:07:49;3.60;;;2.00;;
72117;SDS011;59992;47.490;8.736;2023-05-07T10:10:39;4.30;;;2.50;;
72117;SDS011;59992;47.490;8.736;2023-05-07T10:13:30;2.90;;;1.70;;
72117;SDS011;59992;47.490;8.736;2023-05-07T10:16:22;2.40;;;1.80;;
72117;SDS011;59992;47.490;8.736;2023-05-07T10:19:14;3.20;;;1.50;;
72117;SDS011;59992;47.490;8.736;2023-05-07T10:22:06;3.50;;;1.90;;
72117;SDS011;59992;47.490;8.736;2023-05-07T10:24:58;3.60;;;1.70;;
72117;SDS011;59992;47.490;8.736;2023-05-07T10:27:50;4.40;;;2.10;;
72117;SDS011;59992;47.490;8.736;2023-05-07T10:30:48;4.90;;;2.10;;
72117;SDS011;59992;47.490;8.736;2023-05-07T10:33:48;4.20;;;1.80;;
72117;SDS011;59992;47.490;8.736;2023-05-07T10:36:41;2.30;;;1.70;;
72117;SDS011;59992;47.490;8.736;2023-05-07T10:39:32;2.80;;;1.60;;
72117;SDS011;59992;47.490;8.736;2023-05-07T10:42:23;2.80;;;1.50;;
72117;SDS011;59992;47.490;8.736;2023-05-07T10:45:14;4.70;;;1.70;;
72117;SDS011;59992;47.490;8.736;2023-05-07T10:48:08;2.40;;;1.70;;
72117;SDS011;59992;47.490;8.736;2023-05-07T10:51:21;3.20;;;1.80;;
72117;SDS011;59992;47.490;8.736;2023-05-07T10:54:21;3.80;;;2.00;;
72117;SDS011;59992;47.490;8.736;2023-05-07T11:03:24;5.10;;;2.20;;
72117;SDS011;59992;47.490;8.736;2023-05-07T11:06:15;3.20;;;2.00;;
72117;SDS011;59992;47.490;8.736;2023-05-07T11:09:05;3.20;;;1.80;;
72117;SDS011;59992;47.490;8.736;2023-05-07T11:11:56;2.10;;;1.80;;
72117;SDS011;59992;47.490;8.736;2023-05-07T11:14:46;3.40;;;2.00;;
72117;SDS011;59992;47.490;8.736;2023-05-07T11:17:51;4.10;;;1.90;;
72117;SDS011;59992;47.490;8.736;2023-05-07T11:20:55;4.00;;;1.90;;
72117;SDS011;59992;47.490;8.736;2023-05-07T11:23:56;3.30;;;1.80;;
72117;SDS011;59992;47.490;8.736;2023-05-07T11:26:48;3.20;;;1.90;;
72117;SDS011;59992;47.490;8.736;2023-05-07T11:29:41;4.10;;;1.90;;
72117;SDS011;59992;47.490;8.736;2023-05-07T11:32:46;5.10;;;2.20;;
72117;SDS011;59992;47.490;8.736;2023-05-07T11:35:39;3.80;;;1.80;;
72117;SDS011;59992;47.490;8.736;2023-05-07T11:38:30;2.40;;;1.70;;
72117;SDS011;59992;47.490;8.736;2023-05-07T11:41:32;4.90;;;1.90;;
72117;SDS011;59992;47.490;8.736;2023-05-07T11:44:24;4.90;;;2.00;;
72117;SDS011;59992;47.490;8.736;2023-05-07T11:47:29;4.00;;;2.20;;
72117;SDS011;59992;47.490;8.736;2023-05-07T11:50:19;4.80;;;1.90;;
72117;SDS011;59992;47.490;8.736;2023-05-07T11:53:10;4.30;;;2.20;;
72117;SDS011;59992;47.490;8.736;2023-05-07T11:56:02;3.10;;;1.90;;
72117;SDS011;59992;47.490;8.736;2023-05-07T11:58:56;3.70;;;2.30;;
72117;SDS011;59992;47.490;8.736;2023-05-07T12:01:47;3.30;;;1.80;;
72117;SDS011;59992;47.490;8.736;2023-05-07T12:04:37;5.00;;;2.30;;
72117;SDS011;59992;47.490;8.736;2023-05-07T12:07:28;3.60;;;2.10;;
72117;SDS011;59992;47.490;8.736;2023-05-07T12:10:19;3.00;;;2.00;;
72117;SDS011;59992;47.490;8.736;2023-05-07T12:13:15;4.00;;;2.10;;
72117;SDS011;59992;47.490;8.736;2023-05-07T12:16:06;3.30;;;2.10;;
72117;SDS011;59992;47.490;8.736;2023-05-07T12:18:58;3.60;;;2.50;;
72117;SDS011;59992;47.490;8.736;2023-05-07T12:21:49;3.80;;;2.30;;
72117;SDS011;59992;47.490;8.736;2023-05-07T12:24:44;5.00;;;2.40;;
72117;SDS011;59992;47.490;8.736;2023-05-07T12:27:37;6.80;;;2.60;;
72117;SDS011;59992;47.490;8.736;2023-05-07T12:30:29;4.70;;;2.40;;
72117;SDS011;59992;47.490;8.736;2023-05-07T12:33:20;5.80;;;2.40;;
72117;SDS011;59992;47.490;8.736;2023-05-07T12:36:13;3.40;;;2.60;;
72117;SDS011;59992;47.490;8.736;2023-05-07T12:39:05;3.50;;;2.20;;
72117;SDS011;59992;47.490;8.736;2023-05-07T12:41:56;4.20;;;2.20;;
72117;SDS011;59992;47.490;8.736;2023-05-07T12:44:48;4.90;;;2.20;;
72117;SDS011;59992;47.490;8.736;2023-05-07T12:47:39;4.10;;;2.10;;
72117;SDS011;59992;47.490;8.736;2023-05-07T12:50:33;5.40;;;2.40;;
72117;SDS011;59992;47.490;8.736;2023-05-07T12:53:24;3.20;;;2.20;;
72117;SDS011;59992;47.490;8.736;2023-05-07T12:56:16;5.80;;;1.90;;
72117;SDS011;59992;47.490;8.736;2023-05-07T12:59:08;3.80;;;2.00;;
72117;SDS011;59992;47.490;8.736;2023-05-07T13:01:58;4.50;;;2.00;;
72117;SDS011;59992;47.490;8.736;2023-05-07T13:04:49;4.00;;;1.90;;
72117;SDS011;59992;47.490;8.736;2023-05-07T13:07:40;4.30;;;2.10;;
72117;SDS011;59992;47.490;8.736;2023-05-07T13:10:43;2.80;;;2.00;;
72117;SDS011;59992;47.490;8.736;2023-05-07T13:13:34;2.80;;;1.70;;
72117;SDS011;59992;47.490;8.736;2023-05-07T13:16:27;6.70;;;2.10;;
72117;SDS011;59992;47.490;8.736;2023-05-07T13:19:18;3.10;;;1.90;;
72117;SDS011;59992;47.490;8.736;2023-05-07T13:22:08;4.30;;;2.10;;
72117;SDS011;59992;47.490;8.736;2023-05-07T13:24:59;5.70;;;2.20;;
72117;SDS011;59992;47.490;8.736;2023-05-07T13:27:50;6.30;;;2.10;;
72117;SDS011;59992;47.490;8.736;2023-05-07T13:30:40;5.40;;;2.20;;
72117;SDS011;59992;47.490;8.736;2023-05-07T13:33:32;4.30;;;2.10;;
72117;SDS011;59992;47.490;8.736;2023-05-07T13:36:23;3.90;;;2.20;;
72117;SDS011;59992;47.490;8.736;2023-05-07T13:39:14;4.90;;;2.60;;
72117;SDS011;59992;47.490;8.736;2023-05-07T13:42:05;4.50;;;2.70;;
72117;SDS011;59992;47.490;8.736;2023-05-07T13:44:55;4.30;;;2.50;;
72117;SDS011;59992;47.490;8.736;2023-05-07T13:47:46;4.30;;;2.00;;
72117;SDS011;59992;47.490;8.736;2023-05-07T13:50:38;5.90;;;2.30;;
72117;SDS011;59992;47.490;8.736;2023-05-07T13:53:29;3.70;;;2.00;;
72117;SDS011;59992;47.490;8.736;2023-05-07T13:56:20;3.50;;;2.00;;
72117;SDS011;59992;47.490;8.736;2023-05-07T13:59:11;3.80;;;2.00;;
72117;SDS011;59992;47.490;8.736;2023-05-07T14:02:02;4.30;;;1.80;;
72117;SDS011;59992;47.490;8.736;2023-05-07T14:04:53;4.00;;;2.00;;
72117;SDS011;59992;47.490;8.736;2023-05-07T14:07:44;2.80;;;1.80;;
72117;SDS011;59992;47.490;8.736;2023-05-07T14:10:36;3.00;;;1.80;;
72117;SDS011;59992;47.490;8.736;2023-05-07T14:13:28;2.00;;;1.60;;
72117;SDS011;59992;47.490;8.736;2023-05-07T14:16:19;3.00;;;1.60;;
72117;SDS011;59992;47.490;8.736;2023-05-07T14:19:10;3.40;;;1.90;;
72117;SDS011;59992;47.490;8.736;2023-05-07T14:22:01;2.20;;;1.60;;
72117;SDS011;59992;47.490;8.736;2023-05-07T14:24:52;5.60;;;2.00;;
72117;SDS011;59992;47.490;8.736;2023-05-07T14:27:44;2.90;;;2.10;;
72117;SDS011;59992;47.490;8.736;2023-05-07T14:30:35;3.70;;;2.00;;
72117;SDS011;59992;47.490;8.736;2023-05-07T14:33:26;4.50;;;2.30;;
72117;SDS011;59992;47.490;8.736;2023-05-07T14:36:17;2.90;;;2.00;;
72117;SDS011;59992;47.490;8.736;2023-05-07T14:39:10;2.10;;;1.70;;
72117;SDS011;59992;47.490;8.736;2023-05-07T14:42:01;3.10;;;1.90;;
72117;SDS011;59992;47.490;8.736;2023-05-07T14:44:52;2.90;;;2.20;;
72117;SDS011;59992;47.490;8.736;2023-05-07T14:47:44;3.80;;;2.10;;
72117;SDS011;59992;47.490;8.736;2023-05-07T14:50:36;4.00;;;1.80;;
72117;SDS011;59992;47.490;8.736;2023-05-07T14:53:28;3.40;;;1.90;;
72117;SDS011;59992;47.490;8.736;2023-05-07T14:56:19;3.30;;;2.00;;
72117;SDS011;59992;47.490;8.736;2023-05-07T14:59:12;3.80;;;2.10;;
72117;SDS011;59992;47.490;8.736;2023-05-07T15:02:08;4.00;;;1.90;;
72117;SDS011;59992;47.490;8.736;2023-05-07T15:05:00;3.00;;;1.90;;
72117;SDS011;59992;47.490;8.736;2023-05-07T15:07:51;4.20;;;2.00;;
72117;SDS011;59992;47.490;8.736;2023-05-07T15:10:43;2.50;;;1.40;;
72117;SDS011;59992;47.490;8.736;2023-05-07T15:13:34;5.10;;;2.10;;
72117;SDS011;59992;47.490;8.736;2023-05-07T15:16:27;6.10;;;2.00;;
72117;SDS011;59992;47.490;8.736;2023-05-07T15:19:18;5.10;;;1.70;;
72117;SDS011;59992;47.490;8.736;2023-05-07T15:22:09;4.40;;;1.80;;
72117;SDS011;59992;47.490;8.736;2023-05-07T15:25:01;3.70;;;2.10;;
72117;SDS011;59992;47.490;8.736;2023-05-07T15:27:53;3.10;;;2.00;;
72117;SDS011;59992;47.490;8.736;2023-05-07T15:30:45;3.00;;;1.80;;
72117;SDS011;59992;47.490;8.736;2023-05-07T15:33:37;3.10;;;1.70;;
72117;SDS011;59992;47.490;8.736;2023-05-07T15:36:28;2.70;;;1.60;;
72117;SDS011;59992;47.490;8.736;2023-05-07T15:39:19;2.60;;;1.70;;
72117;SDS011;59992;47.490;8.736;2023-05-07T15:42:11;2.60;;;1.70;;
72117;SDS011;59992;47.490;8.736;2023-05-07T15:45:03;2.60;;;1.80;;
72117;SDS011;59992;47.490;8.736;2023-05-07T15:47:59;4.90;;;2.00;;
72117;SDS011;59992;47.490;8.736;2023-05-07T15:50:50;4.20;;;1.90;;
72117;SDS011;59992;47.490;8.736;2023-05-07T15:53:41;7.50;;;2.20;;
72117;SDS011;59992;47.490;8.736;2023-05-07T15:56:32;3.00;;;1.80;;
72117;SDS011;59992;47.490;8.736;2023-05-07T15:59:23;4.80;;;2.00;;
72117;SDS011;59992;47.490;8.736;2023-05-07T16:02:14;3.00;;;1.70;;
72117;SDS011;59992;47.490;8.736;2023-05-07T16:05:05;2.50;;;1.70;;
72117;SDS011;59992;47.490;8.736;2023-05-07T16:07:58;4.70;;;2.40;;
72117;SDS011;59992;47.490;8.736;2023-05-07T16:10:48;3.60;;;2.00;;
72117;SDS011;59992;47.490;8.736;2023-05-07T16:13:42;2.60;;;1.90;;
72117;SDS011;59992;47.490;8.736;2023-05-07T16:16:36;3.30;;;2.10;;
72117;SDS011;59992;47.490;8.736;2023-05-07T16:19:27;3.30;;;1.80;;
72117;SDS011;59992;47.490;8.736;2023-05-07T16:22:18;4.10;;;2.00;;
72117;SDS011;59992;47.490;8.736;2023-05-07T16:25:12;4.00;;;1.80;;
72117;SDS011;59992;47.490;8.736;2023-05-07T16:28:03;3.20;;;1.90;;
72117;SDS011;59992;47.490;8.736;2023-05-07T16:30:54;3.10;;;1.80;;
72117;SDS011;59992;47.490;8.736;2023-05-07T16:33:45;3.10;;;1.70;;
72117;SDS011;59992;47.490;8.736;2023-05-07T16:36:35;3.80;;;1.90;;
72117;SDS011;59992;47.490;8.736;2023-05-07T16:39:26;4.70;;;1.70;;
72117;SDS011;59992;47.490;8.736;2023-05-07T16:42:17;2.60;;;1.70;;
72117;SDS011;59992;47.490;8.736;2023-05-07T16:45:09;3.40;;;1.90;;
72117;SDS011;59992;47.490;8.736;2023-05-07T16:48:00;3.30;;;1.60;;
72117;SDS011;59992;47.490;8.736;2023-05-07T16:50:52;3.50;;;2.10;;
72117;SDS011;59992;47.490;8.736;2023-05-07T16:53:42;4.50;;;2.10;;
72117;SDS011;59992;47.490;8.736;2023-05-07T16:56:33;4.70;;;1.90;;
72117;SDS011;59992;47.490;8.736;2023-05-07T16:59:24;3.90;;;2.30;;
72117;SDS011;59992;47.490;8.736;2023-05-07T17:02:18;5.30;;;2.10;;
72117;SDS011;59992;47.490;8.736;2023-05-07T17:05:09;5.10;;;2.50;;
72117;SDS011;59992;47.490;8.736;2023-05-07T17:08:00;4.30;;;2.20;;
72117;SDS011;59992;47.490;8.736;2023-05-07T17:10:51;4.10;;;2.40;;
72117;SDS011;59992;47.490;8.736;2023-05-07T17:13:42;4.30;;;2.40;;
72117;SDS011;59992;47.490;8.736;2023-05-07T17:16:33;3.80;;;2.50;;
72117;SDS011;59992;47.490;8.736;2023-05-07T17:19:24;6.10;;;2.80;;
72117;SDS011;59992;47.490;8.736;2023-05-07T17:22:15;5.60;;;2.60;;